createdAt,value
2023-05-12T00:03:34.000Z,985.77
2023-05-12T00:08:27.000Z,985.73
2023-05-12T00:13:22.000Z,985.69
2023-05-12T00:18:15.000Z,985.64
2023-05-12T00:23:09.000Z,985.65
2023-05-12T00:28:03.000Z,985.65
2023-05-12T00:32:57.000Z,985.61
2023-05-12T00:37:51.000Z,985.64
2023-05-12T00:42:46.000Z,985.62
2023-05-12T00:47:37.000Z,985.58
2023-05-12T00:52:30.000Z,985.52
2023-05-12T00:57:25.000Z,985.46
2023-05-12T01:02:19.000Z,985.54
2023-05-12T01:07:12.000Z,985.46
2023-05-12T01:12:07.000Z,985.36
2023-05-12T01:17:01.000Z,985.38
2023-05-12T01:21:55.000Z,985.31
2023-05-12T01:26:49.000Z,985.26
2023-05-12T01:31:43.000Z,985.26
2023-05-12T01:36:37.000Z,985.24
2023-05-12T01:41:30.000Z,985.27
2023-05-12T01:46:24.000Z,985.35
2023-05-12T01:51:18.000Z,985.37
2023-05-12T01:56:12.000Z,985.36
2023-05-12T02:01:07.000Z,985.26
2023-05-12T02:06:01.000Z,985.37
2023-05-12T02:10:55.000Z,985.36
2023-05-12T02:15:49.000Z,985.38
2023-05-12T02:20:46.000Z,985.41
2023-05-12T02:25:35.000Z,985.36
2023-05-12T02:30:29.000Z,985.41
2023-05-12T02:35:24.000Z,985.26
2023-05-12T02:40:19.000Z,985.34
2023-05-12T02:45:13.000Z,985.38
2023-05-12T02:50:07.000Z,985.32
2023-05-12T02:55:01.000Z,985.28
2023-05-12T02:59:56.000Z,985.27
2023-05-12T03:04:49.000Z,985.25
2023-05-12T03:09:43.000Z,985.23
2023-05-12T03:14:37.000Z,985.27
2023-05-12T03:19:32.000Z,985.20
2023-05-12T03:24:25.000Z,985.19
2023-05-12T03:29:19.000Z,985.21
2023-05-12T03:34:13.000Z,985.19
2023-05-12T03:39:07.000Z,985.13
2023-05-12T03:44:02.000Z,985.12
2023-05-12T03:48:56.000Z,985.15
2023-05-12T03:53:50.000Z,985.14
2023-05-12T03:58:44.000Z,985.15
2023-05-12T04:03:38.000Z,985.12
2023-05-12T04:08:32.000Z,985.15
2023-05-12T04:13:25.000Z,985.09
2023-05-12T04:18:20.000Z,985.12
2023-05-12T04:23:14.000Z,985.21
2023-05-12T04:28:08.000Z,985.18
2023-05-12T04:33:02.000Z,985.21
2023-05-12T04:37:56.000Z,985.24
2023-05-12T04:42:50.000Z,985.22
2023-05-12T04:47:47.000Z,985.33
2023-05-12T04:52:35.000Z,985.34
2023-05-12T04:57:30.000Z,985.33
2023-05-12T05:02:24.000Z,985.47
2023-05-12T05:07:18.000Z,985.49
2023-05-12T05:12:12.000Z,985.52
2023-05-12T05:17:06.000Z,985.51
2023-05-12T05:22:02.000Z,985.59
2023-05-12T05:26:55.000Z,985.58
2023-05-12T05:31:48.000Z,985.59
2023-05-12T05:36:42.000Z,985.71
2023-05-12T05:41:35.000Z,985.69
2023-05-12T05:46:27.000Z,985.75
2023-05-12T05:51:22.000Z,985.76
2023-05-12T05:56:16.000Z,985.84
2023-05-12T06:01:10.000Z,985.93
2023-05-12T06:06:05.000Z,985.99
2023-05-12T06:10:58.000Z,986.07
2023-05-12T06:15:53.000Z,986.16
2023-05-12T06:20:47.000Z,986.11
2023-05-12T06:25:40.000Z,986.25
2023-05-12T06:30:34.000Z,986.28
2023-05-12T06:35:28.000Z,986.30
2023-05-12T06:40:25.000Z,986.33
2023-05-12T06:45:17.000Z,986.38
2023-05-12T06:50:11.000Z,986.35
2023-05-12T06:55:04.000Z,986.48
2023-05-12T06:59:56.000Z,986.49
2023-05-12T07:04:50.000Z,986.58
2023-05-12T07:09:44.000Z,986.55
2023-05-12T07:14:38.000Z,986.61
2023-05-12T07:19:32.000Z,986.52
2023-05-12T07:24:26.000Z,986.61
2023-05-12T07:29:21.000Z,986.69
2023-05-12T07:34:15.000Z,986.63
2023-05-12T07:39:09.000Z,986.77
2023-05-12T07:44:04.000Z,986.74
2023-05-12T07:48:57.000Z,986.75
2023-05-12T07:53:51.000Z,986.80
2023-05-12T07:58:46.000Z,986.75
2023-05-12T08:03:41.000Z,986.67
2023-05-12T08:08:35.000Z,986.78
2023-05-12T08:13:29.000Z,986.72
2023-05-12T08:18:24.000Z,986.80
2023-05-12T08:23:18.000Z,986.88
2023-05-12T08:28:13.000Z,986.79
2023-05-12T08:33:06.000Z,986.84
2023-05-12T08:38:00.000Z,986.86
2023-05-12T08:42:54.000Z,987.02
2023-05-12T08:47:48.000Z,986.97
2023-05-12T08:52:42.000Z,986.99
2023-05-12T08:57:36.000Z,986.96
2023-05-12T09:02:30.000Z,987.09
2023-05-12T09:07:25.000Z,987.02
2023-05-12T09:12:20.000Z,986.94
2023-05-12T09:17:14.000Z,986.93
2023-05-12T09:22:08.000Z,987.12
2023-05-12T09:27:02.000Z,987.01
2023-05-12T09:31:56.000Z,987.12
2023-05-12T09:36:50.000Z,987.20
2023-05-12T09:41:45.000Z,987.09
2023-05-12T09:46:39.000Z,987.03
2023-05-12T09:51:34.000Z,987.07
2023-05-12T09:56:29.000Z,987.03
2023-05-12T10:01:22.000Z,987.11
2023-05-12T10:06:18.000Z,987.09
2023-05-12T10:11:13.000Z,987.09
2023-05-12T10:16:08.000Z,987.04
2023-05-12T10:21:03.000Z,987.01
2023-05-12T10:25:56.000Z,987.00
2023-05-12T10:30:49.000Z,986.99
2023-05-12T10:35:42.000Z,986.88
2023-05-12T10:40:36.000Z,986.88
2023-05-12T10:45:30.000Z,986.83
2023-05-12T10:50:24.000Z,986.83
2023-05-12T10:55:18.000Z,986.92
2023-05-12T11:00:12.000Z,986.89
2023-05-12T11:09:56.000Z,986.80
2023-05-12T11:14:50.000Z,986.80
2023-05-12T11:19:44.000Z,986.81
2023-05-12T11:24:38.000Z,986.79
2023-05-12T11:29:31.000Z,986.87
2023-05-12T11:34:25.000Z,986.98
2023-05-12T11:39:19.000Z,987.06
2023-05-12T11:44:13.000Z,987.16
2023-05-12T11:49:07.000Z,987.07
2023-05-12T11:54:01.000Z,987.18
2023-05-12T11:58:56.000Z,987.10
2023-05-12T12:03:52.000Z,987.11
2023-05-12T12:08:46.000Z,987.08
2023-05-12T12:13:39.000Z,987.00
2023-05-12T12:18:32.000Z,987.14
2023-05-12T12:23:23.000Z,987.14
2023-05-12T12:28:17.000Z,987.23
2023-05-12T12:33:10.000Z,987.17
2023-05-12T12:38:03.000Z,987.21
2023-05-12T12:42:58.000Z,987.39
2023-05-12T12:47:52.000Z,987.41
2023-05-12T12:52:46.000Z,987.29
2023-05-12T12:57:41.000Z,987.31
2023-05-12T13:02:35.000Z,987.37
2023-05-12T13:07:30.000Z,987.47
2023-05-12T13:12:24.000Z,987.38
2023-05-12T13:17:18.000Z,987.43
2023-05-12T13:22:10.000Z,987.59
2023-05-12T13:27:04.000Z,987.61
2023-05-12T13:31:56.000Z,987.49
2023-05-12T13:36:51.000Z,987.49
2023-05-12T13:41:45.000Z,987.43
2023-05-12T13:46:38.000Z,987.52
2023-05-12T13:51:32.000Z,987.50
2023-05-12T13:56:26.000Z,987.46
2023-05-12T14:01:21.000Z,987.47
2023-05-12T14:06:15.000Z,987.52
2023-05-12T14:11:10.000Z,987.49
2023-05-12T14:16:05.000Z,987.48
2023-05-12T14:20:59.000Z,987.56
2023-05-12T14:25:54.000Z,987.47
2023-05-12T14:30:48.000Z,987.52
2023-05-12T14:35:41.000Z,987.53
2023-05-12T14:40:35.000Z,987.53
2023-05-12T14:45:29.000Z,987.56
2023-05-12T14:50:24.000Z,987.60
2023-05-12T14:55:18.000Z,987.56
2023-05-12T15:00:12.000Z,987.67
2023-05-12T15:05:06.000Z,987.56
2023-05-12T15:10:00.000Z,987.61
2023-05-12T15:14:54.000Z,987.56
2023-05-12T15:19:48.000Z,987.57
2023-05-12T15:24:43.000Z,987.65
2023-05-12T15:29:37.000Z,987.70
2023-05-12T15:34:30.000Z,987.63
2023-05-12T15:39:24.000Z,987.70
2023-05-12T15:44:18.000Z,987.72
2023-05-12T15:49:12.000Z,987.69
2023-05-12T15:54:06.000Z,987.91
2023-05-12T15:58:59.000Z,987.87
2023-05-12T16:03:53.000Z,988.02
2023-05-12T16:08:46.000Z,988.09
2023-05-12T16:13:38.000Z,988.31
2023-05-12T16:18:32.000Z,988.12
2023-05-12T16:23:25.000Z,988.17
2023-05-12T16:28:19.000Z,988.36
2023-05-12T16:33:13.000Z,988.30
2023-05-12T16:38:07.000Z,988.15
2023-05-12T16:43:01.000Z,988.07
2023-05-12T16:47:55.000Z,987.98
2023-05-12T16:52:49.000Z,988.03
2023-05-12T16:57:43.000Z,988.06
2023-05-12T17:02:35.000Z,988.06
2023-05-12T17:07:27.000Z,987.95
2023-05-12T17:12:21.000Z,988.01
2023-05-12T17:17:15.000Z,988.03
2023-05-12T17:22:09.000Z,988.07
2023-05-12T17:27:03.000Z,988.04
2023-05-12T17:31:57.000Z,988.07
2023-05-12T17:36:52.000Z,988.15
2023-05-12T17:41:46.000Z,988.26
2023-05-12T17:46:41.000Z,988.24
2023-05-12T17:51:34.000Z,988.22
2023-05-12T17:56:28.000Z,988.38
2023-05-12T18:01:23.000Z,988.35
2023-05-12T18:06:17.000Z,988.30
2023-05-12T18:11:11.000Z,988.35
2023-05-12T18:16:05.000Z,988.45
2023-05-12T18:21:00.000Z,988.53
2023-05-12T18:25:56.000Z,988.51
2023-05-12T18:30:49.000Z,988.55
2023-05-12T18:35:43.000Z,988.56
2023-05-12T18:40:37.000Z,988.55
2023-05-12T18:45:31.000Z,988.62
2023-05-12T18:50:25.000Z,988.72
2023-05-12T18:55:19.000Z,988.71
2023-05-12T19:00:14.000Z,988.84
2023-05-12T19:05:07.000Z,988.93
2023-05-12T19:10:01.000Z,989.03
2023-05-12T19:14:54.000Z,989.07
2023-05-12T19:19:48.000Z,989.12
2023-05-12T19:24:41.000Z,989.24
2023-05-12T19:29:36.000Z,989.35
2023-05-12T19:34:29.000Z,989.35
2023-05-12T19:39:24.000Z,989.32
2023-05-12T19:44:18.000Z,989.40
2023-05-12T19:49:12.000Z,989.49
2023-05-12T19:54:07.000Z,989.52
2023-05-12T19:59:00.000Z,989.60
2023-05-12T20:03:55.000Z,989.57
2023-05-12T20:08:49.000Z,989.62
2023-05-12T20:13:43.000Z,989.68
2023-05-12T20:18:37.000Z,989.70
2023-05-12T20:23:31.000Z,989.80
2023-05-12T20:28:26.000Z,989.85
2023-05-12T20:33:20.000Z,989.80
2023-05-12T20:38:14.000Z,989.78
2023-05-12T20:43:09.000Z,989.79
2023-05-12T20:48:03.000Z,989.79
2023-05-12T20:52:57.000Z,989.64
2023-05-12T20:57:51.000Z,989.77
2023-05-12T21:02:45.000Z,989.79
2023-05-12T21:07:39.000Z,989.83
2023-05-12T21:12:33.000Z,989.82
2023-05-12T21:17:27.000Z,989.77
2023-05-12T21:22:22.000Z,989.78
2023-05-12T21:27:16.000Z,989.83
2023-05-12T21:32:10.000Z,989.81
2023-05-12T21:37:05.000Z,989.91
2023-05-12T21:41:58.000Z,989.93
2023-05-12T21:46:53.000Z,989.85
2023-05-12T21:51:47.000Z,989.85
2023-05-12T21:56:41.000Z,989.81
2023-05-12T22:01:34.000Z,989.85
2023-05-12T22:06:28.000Z,989.83
2023-05-12T22:11:23.000Z,989.86
2023-05-12T22:16:17.000Z,989.88
2023-05-12T22:21:11.000Z,989.87
2023-05-12T22:26:05.000Z,989.96
2023-05-12T22:31:00.000Z,989.87
2023-05-12T22:35:54.000Z,989.86
2023-05-12T22:40:49.000Z,990.00
2023-05-12T22:45:43.000Z,990.01
2023-05-12T22:50:38.000Z,989.87
2023-05-12T22:55:32.000Z,990.06
2023-05-12T23:00:25.000Z,989.96
2023-05-12T23:05:19.000Z,989.93
2023-05-12T23:10:14.000Z,989.97
2023-05-12T23:15:08.000Z,989.98
2023-05-12T23:20:02.000Z,989.94
2023-05-12T23:24:57.000Z,989.94
2023-05-12T23:29:51.000Z,989.98
2023-05-12T23:34:45.000Z,989.95
2023-05-12T23:39:39.000Z,989.91
2023-05-12T23:44:33.000Z,989.90
2023-05-12T23:49:25.000Z,989.88
2023-05-12T23:54:19.000Z,989.87
2023-05-12T23:59:14.000Z,989.88
